createdAt,value
2019-02-02T00:02:09.536Z,22.90
2019-02-02T00:07:12.950Z,21.60
2019-02-02T00:12:16.353Z,19.80
2019-02-02T00:17:19.568Z,22.70
2019-02-02T00:22:20.946Z,20.30
2019-02-02T00:27:24.164Z,20.70
2019-02-02T00:32:27.338Z,23.90
2019-02-02T00:38:42.634Z,24.00
2019-02-02T00:43:41.840Z,24.40
2019-02-02T00:48:45.846Z,21.10
2019-02-02T00:53:51.903Z,25.50
2019-02-02T00:58:55.463Z,22.40
2019-02-02T01:03:57.823Z,21.60
2019-02-02T01:09:01.127Z,25.60
2019-02-02T01:14:06.009Z,23.40
2019-02-02T01:19:10.498Z,28.00
2019-02-02T01:24:14.830Z,33.20
2019-02-02T01:29:17.480Z,35.70
2019-02-02T01:34:05.995Z,27.30
2019-02-02T01:39:12.022Z,34.80
2019-02-02T01:44:08.831Z,34.80
2019-02-02T01:56:10.414Z,28.80
2019-02-02T02:01:11.484Z,23.20
2019-02-02T02:06:14.027Z,22.30
2019-02-02T02:11:17.334Z,22.90
2019-02-02T02:16:20.757Z,24.90
2019-02-02T02:21:34.932Z,20.80
2019-02-02T02:42:20.866Z,20.60
2019-02-02T02:47:22.512Z,19.50
2019-02-02T02:52:08.859Z,14.30
2019-02-02T02:57:01.776Z,18.20
2019-02-02T03:01:52.372Z,15.20
2019-02-02T03:06:43.247Z,18.70
2019-02-02T03:11:34.859Z,16.00
2019-02-02T03:21:57.167Z,14.70
2019-02-02T03:26:47.810Z,17.50
2019-02-02T03:31:40.770Z,16.60
2019-02-02T03:36:30.048Z,18.60
2019-02-02T03:41:18.365Z,16.20
2019-02-02T03:46:10.081Z,20.80
2019-02-02T03:50:59.039Z,16.80
2019-02-02T03:55:50.857Z,17.50
2019-02-02T04:00:42.296Z,16.40
2019-02-02T04:05:31.205Z,16.00
2019-02-02T04:10:22.500Z,18.70
2019-02-02T04:15:20.037Z,19.30
2019-02-02T04:20:11.047Z,16.50
2019-02-02T04:25:03.277Z,20.10
2019-02-02T04:29:53.523Z,16.40
2019-02-02T04:34:43.043Z,24.30
2019-02-02T04:39:32.787Z,19.30
2019-02-02T04:44:24.159Z,19.70
2019-02-02T04:49:15.412Z,18.30
2019-02-02T04:54:08.423Z,22.00
2019-02-02T04:58:59.113Z,23.00
2019-02-02T05:04:07.867Z,24.10
2019-02-02T05:09:12.065Z,24.60
2019-02-02T05:14:00.588Z,22.80
2019-02-02T05:18:51.548Z,20.30
2019-02-02T05:23:40.585Z,21.70
2019-02-02T05:28:46.176Z,26.70
2019-02-02T05:33:43.542Z,25.40
2019-02-02T05:38:49.699Z,25.20
2019-02-02T05:43:52.475Z,27.20
2019-02-02T05:48:40.013Z,26.40
2019-02-02T05:53:45.337Z,29.70
2019-02-02T05:58:48.688Z,25.40
2019-02-02T06:03:34.684Z,19.80
2019-02-02T06:08:25.912Z,28.40
2019-02-02T06:13:17.258Z,26.30
2019-02-02T06:18:23.457Z,29.00
2019-02-02T06:23:26.781Z,28.90
2019-02-02T06:28:29.668Z,30.40
2019-02-02T06:33:32.388Z,35.40
2019-02-02T06:38:35.663Z,34.00
2019-02-02T06:43:38.836Z,34.30
2019-02-02T06:48:41.353Z,33.40
2019-02-02T06:53:44.524Z,34.60
2019-02-02T06:58:47.578Z,37.10
2019-02-02T07:03:44.433Z,39.60
2019-02-02T07:08:33.586Z,31.40
2019-02-02T07:13:39.393Z,37.10
2019-02-02T07:18:42.555Z,39.40
2019-02-02T07:23:30.126Z,29.30
2019-02-02T07:28:37.942Z,35.20
2019-02-02T07:33:26.273Z,39.80
2019-02-02T07:38:17.510Z,36.10
2019-02-02T07:43:06.138Z,32.60
2019-02-02T07:47:56.200Z,35.70
2019-02-02T07:52:45.031Z,32.00
2019-02-02T07:57:35.169Z,29.10
2019-02-02T08:02:26.549Z,44.80
2019-02-02T08:07:15.956Z,35.70
2019-02-02T08:12:05.025Z,33.70
2019-02-02T08:16:54.507Z,28.20
2019-02-02T08:21:44.266Z,29.90
2019-02-02T08:26:35.594Z,34.90
2019-02-02T08:31:27.254Z,37.60
2019-02-02T08:36:18.082Z,36.70
2019-02-02T08:41:06.215Z,37.10
2019-02-02T08:45:57.494Z,39.00
2019-02-02T08:50:46.693Z,35.90
2019-02-02T08:55:35.012Z,30.60
2019-02-02T09:00:25.158Z,41.00
2019-02-02T09:05:15.862Z,40.60
2019-02-02T09:10:06.063Z,38.30
2019-02-02T09:14:56.566Z,41.60
2019-02-02T09:19:48.306Z,45.30
2019-02-02T09:24:37.315Z,47.60
2019-02-02T09:29:27.950Z,38.30
2019-02-02T09:34:16.912Z,34.90
2019-02-02T09:39:07.129Z,31.40
2019-02-02T09:43:57.495Z,36.90
2019-02-02T09:48:47.681Z,43.40
2019-02-02T09:53:39.720Z,45.90
2019-02-02T09:58:31.403Z,46.90
2019-02-02T10:03:21.823Z,39.00
2019-02-02T10:08:11.783Z,52.40
2019-02-02T10:13:02.364Z,49.90
2019-02-02T10:17:55.189Z,57.00
2019-02-02T10:22:45.657Z,44.40
2019-02-02T10:27:35.907Z,43.50
2019-02-02T10:32:26.830Z,43.50
2019-02-02T10:37:16.833Z,41.60
2019-02-02T10:42:06.390Z,29.50
2019-02-02T10:46:58.111Z,40.00
2019-02-02T10:51:46.119Z,37.00
2019-02-02T10:56:37.686Z,29.40
2019-02-02T11:01:29.817Z,34.40
2019-02-02T11:06:19.303Z,35.20
2019-02-02T11:11:09.203Z,34.70
2019-02-02T11:15:58.691Z,41.60
2019-02-02T11:20:49.923Z,36.90
2019-02-02T11:25:39.384Z,33.70
2019-02-02T11:30:29.621Z,29.80
2019-02-02T11:35:19.596Z,34.00
2019-02-02T11:40:09.805Z,35.80
2019-02-02T11:44:58.966Z,33.60
2019-02-02T11:49:50.737Z,35.80
2019-02-02T11:54:41.799Z,33.20
2019-02-02T11:59:31.034Z,38.60
2019-02-02T12:04:20.384Z,34.80
2019-02-02T12:09:09.765Z,33.90
2019-02-02T12:13:57.962Z,40.60
2019-02-02T12:18:47.122Z,39.60
2019-02-02T12:23:36.409Z,44.70
2019-02-02T12:28:26.177Z,41.10
2019-02-02T12:33:15.662Z,43.20
2019-02-02T12:38:04.738Z,44.80
2019-02-02T12:42:54.865Z,41.60
2019-02-02T12:47:46.526Z,46.80
2019-02-02T12:52:35.624Z,52.00
2019-02-02T12:57:24.620Z,48.10
2019-02-02T13:02:16.557Z,43.60
2019-02-02T13:07:05.780Z,50.10
2019-02-02T13:11:58.442Z,44.40
2019-02-02T13:16:50.038Z,41.20
2019-02-02T13:21:39.337Z,43.90
2019-02-02T13:26:28.556Z,52.20
2019-02-02T13:31:20.855Z,48.20
2019-02-02T13:36:09.692Z,47.60
2019-02-02T13:40:59.085Z,42.60
2019-02-02T13:45:50.405Z,53.40
2019-02-02T13:50:39.871Z,44.80
2019-02-02T13:55:28.618Z,42.50
2019-02-02T14:00:16.840Z,43.80
2019-02-02T14:05:06.020Z,39.30
2019-02-02T14:09:57.722Z,45.50
2019-02-02T14:14:46.587Z,40.50
2019-02-02T14:19:36.079Z,40.60
2019-02-02T14:24:25.451Z,44.80
2019-02-02T14:29:14.919Z,53.00
2019-02-02T14:34:04.721Z,46.20
2019-02-02T14:38:54.674Z,47.70
2019-02-02T14:43:43.854Z,46.30
2019-02-02T14:48:33.436Z,40.00
2019-02-02T14:53:22.966Z,46.20
2019-02-02T14:58:12.186Z,50.10
2019-02-02T15:03:03.310Z,55.60
2019-02-02T15:07:52.972Z,49.10
2019-02-02T15:12:42.266Z,52.70
2019-02-02T15:17:33.968Z,57.80
2019-02-02T15:22:22.999Z,49.40
2019-02-02T15:27:14.683Z,54.90
2019-02-02T15:32:03.647Z,48.50
2019-02-02T15:36:53.247Z,56.30
2019-02-02T15:41:52.208Z,63.40
2019-02-02T15:46:48.605Z,51.20
2019-02-02T15:51:40.147Z,46.00
2019-02-02T15:56:28.778Z,45.30
2019-02-02T16:01:18.319Z,51.70
2019-02-02T16:06:10.056Z,58.80
2019-02-02T16:10:59.491Z,66.30
2019-02-02T16:15:48.924Z,52.10
2019-02-02T16:20:38.237Z,55.00
2019-02-02T16:25:31.113Z,60.70
2019-02-02T16:30:20.707Z,65.90
2019-02-02T16:35:12.285Z,62.10
2019-02-02T16:40:01.586Z,58.40
2019-02-02T16:44:52.882Z,61.70
2019-02-02T16:49:42.122Z,57.80
2019-02-02T16:54:31.945Z,51.30
2019-02-02T16:59:21.668Z,54.70
2019-02-02T17:04:15.615Z,59.30
2019-02-02T17:09:04.442Z,65.20
2019-02-02T17:13:53.920Z,61.30
2019-02-02T17:18:45.955Z,70.60
2019-02-02T17:23:35.193Z,65.20
2019-02-02T17:28:25.045Z,59.30
2019-02-02T17:33:15.022Z,60.10
2019-02-02T17:38:06.473Z,67.30
2019-02-02T17:42:54.299Z,65.50
2019-02-02T17:47:43.595Z,58.80
2019-02-02T17:52:32.743Z,56.90
2019-02-02T17:57:24.494Z,61.80
2019-02-02T18:02:13.619Z,59.70
2019-02-02T18:07:03.312Z,55.00
2019-02-02T18:11:52.815Z,57.40
2019-02-02T18:16:42.390Z,57.50
2019-02-02T18:21:31.978Z,47.80
2019-02-02T18:26:23.445Z,61.00
2019-02-02T18:31:12.748Z,60.40
2019-02-02T18:36:04.652Z,64.50
2019-02-02T18:40:54.085Z,59.10
2019-02-02T18:45:45.975Z,62.40
2019-02-02T18:50:35.166Z,62.30
2019-02-02T18:55:24.760Z,54.40
2019-02-02T19:00:14.070Z,64.90
2019-02-02T19:05:04.361Z,63.20
2019-02-02T19:09:56.132Z,70.30
2019-02-02T19:14:44.299Z,71.40
2019-02-02T19:19:44.120Z,71.50
2019-02-02T19:24:32.300Z,61.70
2019-02-02T19:29:21.659Z,50.20
2019-02-02T19:34:11.388Z,44.50
2019-02-02T19:39:01.352Z,45.40
2019-02-02T19:43:50.988Z,47.30
2019-02-02T19:48:40.858Z,45.90
2019-02-02T19:53:31.853Z,46.50
2019-02-02T19:58:21.854Z,44.40
2019-02-02T20:03:12.670Z,52.00
2019-02-02T20:08:02.074Z,51.90
2019-02-02T20:12:52.188Z,45.10
2019-02-02T20:17:40.488Z,50.10
2019-02-02T20:22:29.777Z,51.30
2019-02-02T20:27:21.013Z,56.10
2019-02-02T20:32:09.794Z,50.50
2019-02-02T20:36:58.903Z,51.30
2019-02-02T20:41:48.578Z,53.10
2019-02-02T20:46:40.495Z,47.50
2019-02-02T20:51:30.075Z,47.10
2019-02-02T20:56:19.964Z,40.30
2019-02-02T21:01:11.980Z,53.30
2019-02-02T21:06:01.098Z,54.30
2019-02-02T21:10:50.591Z,63.50
2019-02-02T21:15:40.840Z,49.10
2019-02-02T21:20:29.380Z,56.40
2019-02-02T21:25:35.500Z,67.80
2019-02-02T21:30:31.043Z,64.80
2019-02-02T21:35:18.996Z,56.50
2019-02-02T21:40:08.403Z,55.90
2019-02-02T21:44:58.263Z,60.90
2019-02-02T21:49:47.555Z,69.70
2019-02-02T21:54:35.882Z,59.00
2019-02-02T21:59:29.476Z,75.60
2019-02-02T22:04:17.548Z,55.50
2019-02-02T22:09:17.284Z,67.60
2019-02-02T22:14:17.636Z,76.50
2019-02-02T22:19:22.033Z,77.10
2019-02-02T22:24:19.059Z,76.20
2019-02-02T22:29:23.729Z,83.80
2019-02-02T22:34:10.857Z,71.20
2019-02-02T22:39:02.868Z,64.30
2019-02-02T22:43:53.674Z,72.70
2019-02-02T22:48:43.872Z,66.40
2019-02-02T22:53:33.481Z,56.10
2019-02-02T22:58:23.600Z,71.20
2019-02-02T23:03:13.165Z,72.30
2019-02-02T23:08:04.279Z,78.00
2019-02-02T23:12:55.419Z,58.80
2019-02-02T23:17:47.844Z,74.20
2019-02-02T23:22:39.592Z,58.30
2019-02-02T23:27:31.777Z,69.10
2019-02-02T23:32:23.708Z,60.30
2019-02-02T23:37:15.352Z,65.50
2019-02-02T23:42:07.170Z,60.10
2019-02-02T23:46:59.210Z,76.70
2019-02-02T23:51:50.967Z,64.20
2019-02-02T23:56:41.796Z,61.40
